createdAt,value
2017-07-23T00:00:56.121Z,84.32
2017-07-23T00:02:01.877Z,84.81
2017-07-23T00:03:06.935Z,84.41
2017-07-23T00:04:11.922Z,84.61
2017-07-23T00:05:22.211Z,84.35
2017-07-23T00:06:27.218Z,84.83
2017-07-23T00:07:32.212Z,84.63
2017-07-23T00:08:37.215Z,84.64
2017-07-23T00:09:42.291Z,84.25
2017-07-23T00:10:47.366Z,84.36
2017-07-23T00:11:52.374Z,84.68
2017-07-23T00:12:57.418Z,84.87
2017-07-23T00:14:02.417Z,85.12
2017-07-23T00:15:07.486Z,85.05
2017-07-23T00:16:12.493Z,84.81
2017-07-23T00:17:17.614Z,84.65
2017-07-23T00:18:22.651Z,84.96
2017-07-23T00:19:27.634Z,85.14
2017-07-23T00:20:32.613Z,85.01
2017-07-23T00:21:37.716Z,85.42
2017-07-23T00:22:43.594Z,85.38
2017-07-23T00:23:48.686Z,85.67
2017-07-23T00:24:53.773Z,85.55
2017-07-23T00:25:58.756Z,85.80
2017-07-23T00:27:03.856Z,85.27
2017-07-23T00:28:08.949Z,84.69
2017-07-23T00:29:14.630Z,85.37
2017-07-23T00:30:19.712Z,84.64
2017-07-23T00:31:24.798Z,85.18
2017-07-23T00:32:30.673Z,85.06
2017-07-23T00:33:35.699Z,84.67
2017-07-23T00:34:40.749Z,84.59
2017-07-23T00:35:45.946Z,84.27
2017-07-23T00:36:51.018Z,84.69
2017-07-23T00:37:56.002Z,84.87
2017-07-23T00:39:00.978Z,84.81
2017-07-23T00:40:06.850Z,85.05
2017-07-23T00:41:11.909Z,84.90
2017-07-23T00:42:16.944Z,84.21
2017-07-23T00:43:21.941Z,84.63
2017-07-23T00:44:27.056Z,85.07
2017-07-23T00:45:32.090Z,85.05
2017-07-23T00:46:37.077Z,85.21
2017-07-23T00:47:42.065Z,85.31
2017-07-23T00:48:47.077Z,85.77
2017-07-23T00:49:52.153Z,86.10
2017-07-23T00:50:57.219Z,86.16
2017-07-23T00:52:02.354Z,86.35
2017-07-23T00:53:07.360Z,86.15
2017-07-23T00:54:12.369Z,86.05
2017-07-23T00:55:17.358Z,85.99
2017-07-23T00:56:22.434Z,85.75
2017-07-23T00:57:27.498Z,85.42
2017-07-23T00:58:32.497Z,84.89
2017-07-23T00:59:37.646Z,84.54
2017-07-23T01:00:42.689Z,84.41
2017-07-23T01:01:47.746Z,84.76
2017-07-23T01:02:52.690Z,85.17
2017-07-23T01:03:58.602Z,85.68
2017-07-23T01:05:03.618Z,85.51
2017-07-23T01:06:08.603Z,85.56
2017-07-23T01:07:14.455Z,86.05
2017-07-23T01:08:19.412Z,86.11
2017-07-23T01:09:24.463Z,86.21
2017-07-23T01:10:29.440Z,86.16
2017-07-23T01:11:34.438Z,86.09
2017-07-23T01:12:39.412Z,86.04
2017-07-23T01:13:44.472Z,85.62
2017-07-23T01:14:49.454Z,85.80
2017-07-23T01:15:54.458Z,85.51
2017-07-23T01:17:00.506Z,85.45
2017-07-23T01:18:05.550Z,85.84
2017-07-23T01:19:10.718Z,85.94
2017-07-23T01:20:15.690Z,85.75
2017-07-23T01:21:20.691Z,86.00
2017-07-23T01:22:25.677Z,86.21
2017-07-23T01:23:30.849Z,86.16
2017-07-23T01:24:35.818Z,85.86
2017-07-23T01:25:40.822Z,86.09
2017-07-23T01:26:45.810Z,85.97
2017-07-23T01:27:53.985Z,85.84
2017-07-23T01:29:02.616Z,86.32
2017-07-23T01:30:07.582Z,86.19
2017-07-23T01:31:13.319Z,86.16
2017-07-23T01:32:18.375Z,85.97
2017-07-23T01:33:23.449Z,85.84
2017-07-23T01:34:28.454Z,85.83
2017-07-23T01:35:33.551Z,86.23
2017-07-23T01:36:38.625Z,86.20
2017-07-23T01:37:43.701Z,85.73
2017-07-23T01:38:48.733Z,85.21
2017-07-23T01:39:53.773Z,85.35
2017-07-23T01:40:58.882Z,85.52
2017-07-23T01:42:03.937Z,85.59
2017-07-23T01:43:09.002Z,85.85
2017-07-23T01:44:14.047Z,86.08
2017-07-23T01:45:18.370Z,86.08
2017-07-23T01:46:22.985Z,86.16
2017-07-23T01:47:28.044Z,86.06
2017-07-23T01:48:36.457Z,86.21
2017-07-23T01:49:42.000Z,86.16
2017-07-23T01:50:46.678Z,86.16
2017-07-23T01:51:51.763Z,86.12
2017-07-23T01:52:56.451Z,85.99
2017-07-23T01:54:01.155Z,86.01
2017-07-23T01:55:05.471Z,86.08
2017-07-23T01:56:10.190Z,85.65
2017-07-23T01:57:14.506Z,85.44
2017-07-23T01:58:18.879Z,85.60
2017-07-23T01:59:23.962Z,85.87
2017-07-23T02:00:28.951Z,86.27
2017-07-23T02:01:33.663Z,86.64
2017-07-23T02:02:39.244Z,86.54
2017-07-23T02:03:44.393Z,86.54
2017-07-23T02:04:49.377Z,86.75
2017-07-23T02:05:54.465Z,86.81
2017-07-23T02:06:59.600Z,86.90
2017-07-23T02:08:04.637Z,86.84
2017-07-23T02:09:09.712Z,86.67
2017-07-23T02:10:14.794Z,86.38
2017-07-23T02:11:20.834Z,86.88
2017-07-23T02:12:27.367Z,86.88
2017-07-23T02:13:32.418Z,87.06
2017-07-23T02:14:37.378Z,87.39
2017-07-23T02:15:42.341Z,87.15
2017-07-23T02:16:47.410Z,87.24
2017-07-23T02:17:52.450Z,87.34
2017-07-23T02:18:57.516Z,87.33
2017-07-23T02:20:02.589Z,87.28
2017-07-23T02:21:08.593Z,87.34
2017-07-23T02:22:12.913Z,87.31
2017-07-23T02:23:17.946Z,87.46
2017-07-23T02:24:23.067Z,87.42
2017-07-23T02:25:28.130Z,87.01
2017-07-23T02:26:34.367Z,86.76
2017-07-23T02:27:39.450Z,86.95
2017-07-23T02:28:44.490Z,87.15
2017-07-23T02:29:49.476Z,86.85
2017-07-23T02:30:54.461Z,86.64
2017-07-23T02:31:59.446Z,86.57
2017-07-23T02:33:04.438Z,86.81
2017-07-23T02:34:09.575Z,87.03
2017-07-23T02:35:14.579Z,87.05
2017-07-23T02:36:19.591Z,87.18
2017-07-23T02:37:24.674Z,87.55
2017-07-23T02:38:29.798Z,87.73
2017-07-23T02:39:34.837Z,87.89
2017-07-23T02:40:40.441Z,87.91
2017-07-23T02:41:45.513Z,87.97
2017-07-23T02:42:50.575Z,87.62
2017-07-23T02:43:55.604Z,87.47
2017-07-23T02:45:00.662Z,87.45
2017-07-23T02:46:05.749Z,87.60
2017-07-23T02:47:10.825Z,87.95
2017-07-23T02:48:15.918Z,87.91
2017-07-23T02:49:21.046Z,87.43
2017-07-23T02:50:26.081Z,87.09
2017-07-23T02:51:32.846Z,86.95
2017-07-23T02:52:37.806Z,87.23
2017-07-23T02:53:43.796Z,86.98
2017-07-23T02:54:48.905Z,86.92
2017-07-23T02:55:54.656Z,87.07
2017-07-23T02:56:59.647Z,87.25
2017-07-23T02:58:04.626Z,87.20
2017-07-23T02:59:09.610Z,87.69
2017-07-23T03:00:14.625Z,87.70
2017-07-23T03:01:21.938Z,87.43
2017-07-23T03:02:29.786Z,87.71
2017-07-23T03:03:36.193Z,87.79
2017-07-23T03:04:42.303Z,88.19
2017-07-23T03:05:47.881Z,88.62
2017-07-23T03:06:54.003Z,88.47
2017-07-23T03:07:59.086Z,88.47
2017-07-23T03:09:03.602Z,88.36
2017-07-23T03:10:08.718Z,88.14
2017-07-23T03:11:14.373Z,88.23
2017-07-23T03:12:19.788Z,88.47
2017-07-23T03:13:24.810Z,88.87
2017-07-23T03:14:29.792Z,88.66
2017-07-23T03:15:34.993Z,88.65
2017-07-23T03:16:40.112Z,88.36
2017-07-23T03:17:45.143Z,88.33
2017-07-23T03:18:50.128Z,88.18
2017-07-23T03:19:55.131Z,88.72
2017-07-23T03:21:00.260Z,88.72
2017-07-23T03:22:05.322Z,88.49
2017-07-23T03:23:10.111Z,88.58
2017-07-23T03:24:15.125Z,88.95
2017-07-23T03:25:20.154Z,89.01
2017-07-23T03:26:25.211Z,88.29
2017-07-23T03:27:30.310Z,88.49
2017-07-23T03:28:35.914Z,88.75
2017-07-23T03:29:40.992Z,88.58
2017-07-23T03:30:46.154Z,88.36
2017-07-23T03:31:51.241Z,87.90
2017-07-23T03:32:56.370Z,87.64
2017-07-23T03:34:01.410Z,87.35
2017-07-23T03:35:06.489Z,87.69
2017-07-23T03:36:11.458Z,88.04
2017-07-23T03:37:16.469Z,87.97
2017-07-23T03:38:21.602Z,88.39
2017-07-23T03:39:26.633Z,88.47
2017-07-23T03:40:31.714Z,88.35
2017-07-23T03:41:36.790Z,88.13
2017-07-23T03:42:41.764Z,88.09
2017-07-23T03:43:46.883Z,87.89
2017-07-23T03:44:51.917Z,88.13
2017-07-23T03:45:57.837Z,88.31
2017-07-23T03:47:02.842Z,88.24
2017-07-23T03:48:07.906Z,88.38
2017-07-23T03:49:13.032Z,88.09
2017-07-23T03:50:18.063Z,87.57
2017-07-23T03:51:23.072Z,87.28
2017-07-23T03:52:28.655Z,87.40
2017-07-23T03:53:34.031Z,87.55
2017-07-23T03:54:41.861Z,86.79
2017-07-23T03:55:47.653Z,86.88
2017-07-23T03:56:52.659Z,87.20
2017-07-23T03:57:57.663Z,87.41
2017-07-23T03:59:02.735Z,87.35
2017-07-23T04:00:07.738Z,87.15
2017-07-23T04:01:13.285Z,86.94
2017-07-23T04:02:18.294Z,86.98
2017-07-23T04:03:23.254Z,87.02
2017-07-23T04:04:28.257Z,86.78
2017-07-23T04:05:33.252Z,86.50
2017-07-23T04:06:38.313Z,86.91
2017-07-23T04:07:48.483Z,86.99
2017-07-23T04:08:53.501Z,87.14
2017-07-23T04:09:58.471Z,86.84
2017-07-23T04:11:03.474Z,87.35
2017-07-23T04:12:08.534Z,87.46
2017-07-23T04:13:13.528Z,87.21
2017-07-23T04:14:18.497Z,87.05
2017-07-23T04:15:27.910Z,86.77
2017-07-23T04:16:32.899Z,86.53
2017-07-23T04:17:37.971Z,86.62
2017-07-23T04:18:43.052Z,86.42
2017-07-23T04:19:52.539Z,86.03
2017-07-23T04:20:57.638Z,87.20
2017-07-23T04:22:06.222Z,87.08
2017-07-23T04:23:11.260Z,87.02
2017-07-23T04:24:16.230Z,87.34
2017-07-23T04:25:21.237Z,87.72
2017-07-23T04:26:26.326Z,87.37
2017-07-23T04:27:31.438Z,87.60
2017-07-23T04:28:36.453Z,86.95
2017-07-23T04:29:41.445Z,86.68
2017-07-23T04:30:46.459Z,86.93
2017-07-23T04:31:51.616Z,87.33
2017-07-23T04:32:56.662Z,87.36
2017-07-23T04:34:01.708Z,87.09
2017-07-23T04:35:06.767Z,87.33
2017-07-23T04:36:14.123Z,87.20
2017-07-23T04:37:20.881Z,86.57
2017-07-23T04:38:25.961Z,86.57
2017-07-23T04:39:31.096Z,87.16
2017-07-23T04:40:36.099Z,87.80
2017-07-23T04:41:41.262Z,87.69
2017-07-23T04:42:46.244Z,87.88
2017-07-23T04:43:51.369Z,88.41
2017-07-23T04:44:56.529Z,87.88
2017-07-23T04:46:01.538Z,87.35
2017-07-23T04:47:06.590Z,87.15
2017-07-23T04:48:11.202Z,87.83
2017-07-23T04:49:16.294Z,87.35
2017-07-23T04:50:21.353Z,86.21
2017-07-23T04:51:26.520Z,85.69
2017-07-23T04:52:31.618Z,85.83
2017-07-23T04:53:36.695Z,85.75
2017-07-23T04:54:42.168Z,85.50
2017-07-23T04:55:47.451Z,86.20
2017-07-23T04:56:52.726Z,85.90
2017-07-23T04:57:57.734Z,84.47
2017-07-23T04:59:04.249Z,84.20
2017-07-23T05:00:09.946Z,83.65
2017-07-23T05:01:14.931Z,83.76
2017-07-23T05:02:19.926Z,84.48
2017-07-23T05:03:25.015Z,84.88
2017-07-23T05:04:30.068Z,84.97
2017-07-23T05:05:35.218Z,85.70
2017-07-23T05:06:40.273Z,84.50
2017-07-23T05:07:45.343Z,84.31
2017-07-23T05:08:50.389Z,84.52
2017-07-23T05:09:55.585Z,84.08
2017-07-23T05:11:00.645Z,83.98
2017-07-23T05:12:05.881Z,84.64
2017-07-23T05:13:11.460Z,84.13
2017-07-23T05:14:16.449Z,84.19
2017-07-23T05:15:21.439Z,84.82
2017-07-23T05:16:26.549Z,84.39
2017-07-23T05:17:31.658Z,84.30
2017-07-23T05:18:36.705Z,84.05
2017-07-23T05:19:41.771Z,84.20
2017-07-23T05:20:46.737Z,83.72
2017-07-23T05:21:51.778Z,83.43
2017-07-23T05:22:56.818Z,83.72
2017-07-23T05:24:01.774Z,84.12
2017-07-23T05:25:06.771Z,84.73
2017-07-23T05:26:11.769Z,83.07
2017-07-23T05:27:16.894Z,82.41
2017-07-23T05:28:21.930Z,82.76
2017-07-23T05:29:26.908Z,82.69
2017-07-23T05:30:32.035Z,82.94
2017-07-23T05:31:37.079Z,83.59
2017-07-23T05:32:42.097Z,83.33
2017-07-23T05:33:47.161Z,82.94
2017-07-23T05:34:54.224Z,83.26
2017-07-23T05:35:59.342Z,83.41
2017-07-23T05:37:04.337Z,83.77
2017-07-23T05:38:09.380Z,83.40
2017-07-23T05:39:15.079Z,83.94
2017-07-23T05:40:20.090Z,83.87
2017-07-23T05:41:25.083Z,83.38
2017-07-23T05:42:29.718Z,83.65
2017-07-23T05:43:34.773Z,83.95
2017-07-23T05:44:39.849Z,83.94
2017-07-23T05:45:47.039Z,84.33
2017-07-23T05:46:53.981Z,84.18
2017-07-23T05:47:58.942Z,84.07
2017-07-23T05:49:05.306Z,83.86
2017-07-23T05:50:10.278Z,83.02
2017-07-23T05:51:15.335Z,84.20
2017-07-23T05:52:20.330Z,84.56
2017-07-23T05:53:25.389Z,84.93
2017-07-23T05:54:30.438Z,84.45
2017-07-23T05:55:35.467Z,84.06
2017-07-23T05:56:40.517Z,83.84
2017-07-23T05:57:45.641Z,84.25
2017-07-23T05:58:50.626Z,84.08
2017-07-23T05:59:57.407Z,84.57
2017-07-23T06:01:08.808Z,84.46
2017-07-23T06:02:14.492Z,84.18
2017-07-23T06:03:20.450Z,84.28
2017-07-23T06:04:25.466Z,83.68
2017-07-23T06:05:31.734Z,83.59
2017-07-23T06:06:36.684Z,84.07
2017-07-23T06:07:41.764Z,84.01
2017-07-23T06:08:52.705Z,83.88
2017-07-23T06:10:00.424Z,83.77
2017-07-23T06:11:06.166Z,84.19
2017-07-23T06:12:11.188Z,84.35
2017-07-23T06:13:16.259Z,84.17
2017-07-23T06:14:21.246Z,83.83
2017-07-23T06:15:26.242Z,83.76
2017-07-23T06:16:31.355Z,84.25
2017-07-23T06:17:36.410Z,84.67
2017-07-23T06:18:41.303Z,85.45
2017-07-23T06:19:46.395Z,85.04
2017-07-23T06:20:53.877Z,85.31
2017-07-23T06:21:59.383Z,84.45
2017-07-23T06:23:04.570Z,84.66
2017-07-23T06:24:09.553Z,85.01
2017-07-23T06:25:15.421Z,84.59
2017-07-23T06:26:20.447Z,84.32
2017-07-23T06:27:25.469Z,84.06
2017-07-23T06:28:30.495Z,83.42
2017-07-23T06:29:35.497Z,83.29
2017-07-23T06:30:40.574Z,82.70
2017-07-23T06:31:45.677Z,82.18
2017-07-23T06:32:50.662Z,82.17
2017-07-23T06:33:55.948Z,82.18
2017-07-23T06:35:01.232Z,81.98
2017-07-23T06:36:06.298Z,82.01
2017-07-23T06:37:11.266Z,81.37
2017-07-23T06:38:16.278Z,80.55
2017-07-23T06:39:21.457Z,80.62
2017-07-23T06:40:26.511Z,80.58
2017-07-23T06:41:31.520Z,80.47
2017-07-23T06:42:36.507Z,80.60
2017-07-23T06:43:41.650Z,80.27
2017-07-23T06:44:46.674Z,80.13
2017-07-23T06:45:51.750Z,80.17
2017-07-23T06:46:56.838Z,80.54
2017-07-23T06:48:01.933Z,80.58
2017-07-23T06:49:07.190Z,80.47
2017-07-23T06:50:12.170Z,80.48
2017-07-23T06:51:18.086Z,80.61
2017-07-23T06:52:23.074Z,80.34
2017-07-23T06:53:28.072Z,80.45
2017-07-23T06:54:34.027Z,80.25
2017-07-23T06:55:39.142Z,80.64
2017-07-23T06:56:44.627Z,80.51
2017-07-23T06:57:49.621Z,80.26
2017-07-23T06:58:54.611Z,80.33
2017-07-23T06:59:59.702Z,80.17
2017-07-23T07:01:04.848Z,79.85
2017-07-23T07:02:16.673Z,79.27
2017-07-23T07:03:24.190Z,79.19
2017-07-23T07:04:29.242Z,79.18
2017-07-23T07:05:34.437Z,78.77
2017-07-23T07:06:39.414Z,78.73
2017-07-23T07:07:44.973Z,78.39
2017-07-23T07:08:49.997Z,78.35
2017-07-23T07:09:55.154Z,78.18
2017-07-23T07:11:00.154Z,78.24
2017-07-23T07:12:05.322Z,77.95
2017-07-23T07:13:10.321Z,77.38
2017-07-23T07:14:15.385Z,77.06
2017-07-23T07:15:20.367Z,76.67
2017-07-23T07:16:25.394Z,77.11
2017-07-23T07:17:31.458Z,76.55
2017-07-23T07:18:36.431Z,76.39
2017-07-23T07:19:41.458Z,76.08
2017-07-23T07:20:46.529Z,76.22
2017-07-23T07:21:51.654Z,76.20
2017-07-23T07:22:57.185Z,76.33
2017-07-23T07:24:02.495Z,76.53
2017-07-23T07:25:07.566Z,76.10
2017-07-23T07:26:13.057Z,75.67
2017-07-23T07:27:18.067Z,75.15
2017-07-23T07:28:23.114Z,74.93
2017-07-23T07:29:28.099Z,75.08
2017-07-23T07:30:33.209Z,74.37
2017-07-23T07:31:38.289Z,74.01
2017-07-23T07:32:43.422Z,73.75
2017-07-23T07:33:48.431Z,73.52
2017-07-23T07:34:53.433Z,73.32
2017-07-23T07:36:00.673Z,73.61
2017-07-23T07:37:05.739Z,73.47
2017-07-23T07:38:10.866Z,73.18
2017-07-23T07:39:17.535Z,72.85
2017-07-23T07:40:26.260Z,72.43
2017-07-23T07:41:31.850Z,72.02
2017-07-23T07:42:36.996Z,71.74
2017-07-23T07:43:42.983Z,71.24
2017-07-23T07:44:48.284Z,70.41
2017-07-23T07:45:53.926Z,69.85
2017-07-23T07:46:59.077Z,69.64
2017-07-23T07:48:04.254Z,69.57
2017-07-23T07:49:10.748Z,69.07
2017-07-23T07:50:17.129Z,68.79
2017-07-23T07:51:22.160Z,68.81
2017-07-23T07:52:27.805Z,68.27
2017-07-23T07:53:32.998Z,68.32
2017-07-23T07:54:38.843Z,67.76
2017-07-23T07:55:44.237Z,67.65
2017-07-23T07:56:49.708Z,67.59
2017-07-23T07:57:54.835Z,67.64
2017-07-23T07:59:00.099Z,67.37
2017-07-23T08:00:06.167Z,66.61
2017-07-23T08:01:11.266Z,66.01
2017-07-23T08:02:16.776Z,65.53
2017-07-23T08:03:21.792Z,65.52
2017-07-23T08:04:27.363Z,65.37
2017-07-23T08:05:32.388Z,65.19
2017-07-23T08:06:37.550Z,65.44
2017-07-23T08:07:42.463Z,65.56
2017-07-23T08:08:47.494Z,65.79
2017-07-23T08:09:52.593Z,65.61
2017-07-23T08:10:58.890Z,65.52
2017-07-23T08:12:04.075Z,65.20
2017-07-23T08:13:09.341Z,65.24
2017-07-23T08:14:15.110Z,65.13
2017-07-23T08:15:20.148Z,64.83
2017-07-23T08:16:26.034Z,64.78
2017-07-23T08:17:30.998Z,64.54
2017-07-23T08:18:36.031Z,64.20
2017-07-23T08:19:41.252Z,63.57
2017-07-23T08:20:46.758Z,63.55
2017-07-23T08:21:53.311Z,63.45
2017-07-23T08:22:58.606Z,63.43
2017-07-23T08:24:04.400Z,63.58
2017-07-23T08:25:09.846Z,63.60
2017-07-23T08:26:19.479Z,63.43
2017-07-23T08:27:24.506Z,63.33
2017-07-23T08:28:29.545Z,62.89
2017-07-23T08:29:35.840Z,62.93
2017-07-23T08:30:42.737Z,63.07
2017-07-23T08:31:48.409Z,62.82
2017-07-23T08:32:54.178Z,63.01
2017-07-23T08:33:59.854Z,63.52
2017-07-23T08:35:05.330Z,62.17
2017-07-23T08:36:10.724Z,61.89
2017-07-23T08:37:15.743Z,61.99
2017-07-23T08:38:20.857Z,62.31
2017-07-23T08:39:26.321Z,62.73
2017-07-23T08:40:31.506Z,62.38
2017-07-23T08:41:36.883Z,62.11
2017-07-23T08:42:42.140Z,62.74
2017-07-23T08:43:47.335Z,63.03
2017-07-23T08:44:53.453Z,63.48
2017-07-23T08:45:58.767Z,63.71
2017-07-23T08:47:04.474Z,63.90
2017-07-23T08:48:09.722Z,64.10
2017-07-23T08:49:14.801Z,63.80
2017-07-23T08:50:21.160Z,63.59
2017-07-23T08:51:27.462Z,63.32
2017-07-23T08:52:33.214Z,62.64
2017-07-23T08:53:38.395Z,62.39
2017-07-23T08:54:43.634Z,61.89
2017-07-23T08:55:48.846Z,61.72
2017-07-23T08:56:55.270Z,61.39
2017-07-23T08:58:00.499Z,61.14
2017-07-23T08:59:05.605Z,60.96
2017-07-23T09:00:12.709Z,61.09
2017-07-23T09:01:18.807Z,60.40
2017-07-23T09:02:23.827Z,60.63
2017-07-23T09:03:29.320Z,60.49
2017-07-23T09:04:34.663Z,60.48
2017-07-23T09:05:39.928Z,60.39
2017-07-23T09:06:45.289Z,60.35
2017-07-23T09:07:50.799Z,60.59
2017-07-23T09:08:55.885Z,60.39
2017-07-23T09:10:00.957Z,60.05
2017-07-23T09:11:08.217Z,60.22
2017-07-23T09:12:13.657Z,59.14
2017-07-23T09:13:19.272Z,58.35
2017-07-23T09:14:24.637Z,57.96
2017-07-23T09:15:29.413Z,57.70
2017-07-23T09:16:35.083Z,57.51
2017-07-23T09:17:40.488Z,57.11
2017-07-23T09:18:46.176Z,55.97
2017-07-23T09:19:51.538Z,55.01
2017-07-23T09:20:56.607Z,55.11
2017-07-23T09:22:01.988Z,55.22
2017-07-23T09:23:07.721Z,53.94
2017-07-23T09:24:14.780Z,53.19
2017-07-23T09:25:19.923Z,53.45
2017-07-23T09:26:26.006Z,53.19
2017-07-23T09:27:31.374Z,52.89
2017-07-23T09:28:36.403Z,52.91
2017-07-23T09:29:42.283Z,52.66
2017-07-23T09:30:48.924Z,52.41
2017-07-23T09:31:54.602Z,51.21
2017-07-23T09:33:00.816Z,50.55
2017-07-23T09:34:05.946Z,50.21
2017-07-23T09:35:12.508Z,50.45
2017-07-23T09:36:18.215Z,49.16
2017-07-23T09:37:23.371Z,49.02
2017-07-23T09:38:28.386Z,48.42
2017-07-23T09:39:33.371Z,47.87
2017-07-23T09:40:38.337Z,47.56
2017-07-23T09:41:44.065Z,48.14
2017-07-23T09:42:49.137Z,48.16
2017-07-23T09:43:54.282Z,48.07
2017-07-23T13:27:38.232Z,39.47
2017-07-23T13:28:43.331Z,39.32
2017-07-23T13:29:48.479Z,38.93
2017-07-23T13:30:53.832Z,37.70
2017-07-23T13:31:59.782Z,37.78
2017-07-23T13:33:05.378Z,37.89
2017-07-23T13:34:10.585Z,37.54
2017-07-23T13:35:15.766Z,37.19
2017-07-23T13:36:20.839Z,37.10
2017-07-23T13:37:26.353Z,37.82
2017-07-23T13:38:31.466Z,37.63
2017-07-23T13:39:37.062Z,37.58
2017-07-23T13:40:42.101Z,37.64
2017-07-23T13:41:46.933Z,37.49
2017-07-23T13:42:51.951Z,37.78
2017-07-23T13:43:56.969Z,37.97
2017-07-23T13:45:02.021Z,37.87
2017-07-23T13:46:07.014Z,37.00
2017-07-23T13:47:12.071Z,36.37
2017-07-23T13:48:17.057Z,36.58
2017-07-23T13:49:22.089Z,36.77
2017-07-23T13:50:27.144Z,36.48
2017-07-23T13:51:32.246Z,36.34
2017-07-23T13:52:37.117Z,36.24
2017-07-23T13:53:42.193Z,35.87
2017-07-23T13:54:47.298Z,35.78
2017-07-23T13:55:52.345Z,35.50
2017-07-23T13:56:57.445Z,35.70
2017-07-23T13:58:02.509Z,35.63
2017-07-23T13:59:07.480Z,35.39
2017-07-23T14:00:12.533Z,35.33
2017-07-23T14:01:17.566Z,35.14
2017-07-23T14:02:22.650Z,34.90
2017-07-23T14:03:33.710Z,35.35
2017-07-23T14:04:38.702Z,35.32
2017-07-23T14:05:43.793Z,34.16
2017-07-23T14:06:48.805Z,34.48
2017-07-23T14:07:53.812Z,34.71
2017-07-23T14:08:58.904Z,34.85
2017-07-23T14:10:03.965Z,34.76
2017-07-23T14:11:08.955Z,34.63
2017-07-23T14:12:14.032Z,34.99
2017-07-23T14:13:19.106Z,35.36
2017-07-23T14:14:24.078Z,35.40
2017-07-23T14:15:29.202Z,35.61
2017-07-23T14:16:34.329Z,35.46
2017-07-23T14:17:39.401Z,35.11
2017-07-23T14:18:44.445Z,35.68
2017-07-23T14:19:49.529Z,35.88
2017-07-23T14:20:54.597Z,35.32
2017-07-23T14:21:59.734Z,35.31
2017-07-23T14:23:04.945Z,35.37
2017-07-23T14:24:09.967Z,35.59
2017-07-23T14:25:15.022Z,35.98
2017-07-23T14:26:20.070Z,36.08
2017-07-23T14:27:25.282Z,36.10
2017-07-23T14:28:30.298Z,36.17
2017-07-23T14:29:35.490Z,36.61
2017-07-23T14:30:40.582Z,36.60
2017-07-23T14:31:45.871Z,36.54
2017-07-23T14:32:50.986Z,35.86
2017-07-23T14:33:56.023Z,35.66
2017-07-23T14:35:01.106Z,35.61
2017-07-23T14:36:06.053Z,35.97
2017-07-23T14:37:11.140Z,35.93
2017-07-23T14:38:16.189Z,35.87
2017-07-23T14:39:21.238Z,36.29
2017-07-23T14:40:26.411Z,36.45
2017-07-23T14:41:31.410Z,36.51
2017-07-23T14:42:36.511Z,36.76
2017-07-23T14:43:42.254Z,37.38
2017-07-23T14:44:47.826Z,37.03
2017-07-23T14:45:52.841Z,37.26
2017-07-23T14:46:57.831Z,36.78
2017-07-23T14:48:02.819Z,36.81
2017-07-23T14:49:07.862Z,36.45
2017-07-23T14:50:12.900Z,37.40
2017-07-23T14:51:17.978Z,37.76
2017-07-23T14:52:22.972Z,37.87
2017-07-23T14:53:28.541Z,37.65
2017-07-23T14:54:33.583Z,37.24
2017-07-23T14:55:38.633Z,37.27
2017-07-23T14:56:43.719Z,37.11
2017-07-23T14:57:48.716Z,37.52
2017-07-23T14:58:54.503Z,36.94
2017-07-23T14:59:59.606Z,37.11
2017-07-23T15:01:05.832Z,37.12
2017-07-23T15:02:11.006Z,36.84
2017-07-23T15:03:16.047Z,36.88
2017-07-23T15:04:21.657Z,37.38
2017-07-23T15:05:26.766Z,37.67
2017-07-23T15:06:37.061Z,38.57
2017-07-23T15:07:42.041Z,38.54
2017-07-23T15:08:47.142Z,38.45
2017-07-23T15:09:52.185Z,38.50
2017-07-23T15:10:57.318Z,38.73
2017-07-23T15:12:02.347Z,38.42
2017-07-23T15:13:07.318Z,38.61
2017-07-23T15:14:12.438Z,38.64
2017-07-23T15:15:17.510Z,38.79
2017-07-23T15:16:22.637Z,38.85
2017-07-23T15:17:27.665Z,39.07
2017-07-23T15:18:32.778Z,39.14
2017-07-23T15:19:38.580Z,39.12
2017-07-23T15:20:43.649Z,39.11
2017-07-23T15:21:48.641Z,38.97
2017-07-23T15:22:53.702Z,38.71
2017-07-23T15:23:58.803Z,38.69
2017-07-23T15:25:03.876Z,38.63
2017-07-23T15:26:08.997Z,38.80
2017-07-23T15:27:14.267Z,38.94
2017-07-23T15:28:19.338Z,38.15
2017-07-23T15:29:24.424Z,38.00
2017-07-23T15:30:29.488Z,37.62
2017-07-23T15:31:34.578Z,37.82
2017-07-23T15:32:39.482Z,37.81
2017-07-23T15:33:44.359Z,38.01
2017-07-23T15:34:49.241Z,37.85
2017-07-23T15:35:54.287Z,37.46
2017-07-23T15:36:59.302Z,37.78
2017-07-23T15:38:04.418Z,37.78
2017-07-23T15:39:09.468Z,38.17
2017-07-23T15:40:14.563Z,38.46
2017-07-23T15:41:19.638Z,38.66
2017-07-23T15:42:24.749Z,38.63
2017-07-23T15:43:29.913Z,38.84
2017-07-23T15:44:35.018Z,38.54
2017-07-23T15:45:40.067Z,38.20
2017-07-23T15:46:45.151Z,38.23
2017-07-23T15:47:50.237Z,38.42
2017-07-23T15:48:55.347Z,38.20
2017-07-23T15:50:00.413Z,37.98
2017-07-23T15:51:06.488Z,38.39
2017-07-23T15:52:11.577Z,38.57
2017-07-23T15:53:16.573Z,38.25
2017-07-23T15:54:21.696Z,38.36
2017-07-23T15:55:26.737Z,38.75
2017-07-23T15:56:31.830Z,38.99
2017-07-23T15:57:36.901Z,38.40
2017-07-23T15:58:41.973Z,38.33
2017-07-23T15:59:47.771Z,37.77
2017-07-23T16:00:52.742Z,37.71
2017-07-23T16:01:57.758Z,38.03
2017-07-23T16:03:02.845Z,38.15
2017-07-23T16:04:07.939Z,38.09
2017-07-23T16:05:13.059Z,38.62
2017-07-23T16:06:18.098Z,38.22
2017-07-23T16:07:23.188Z,37.92
2017-07-23T16:08:28.235Z,38.13
2017-07-23T16:09:33.246Z,37.87
2017-07-23T16:10:38.275Z,37.93
2017-07-23T16:11:43.315Z,38.19
2017-07-23T16:12:48.399Z,38.55
2017-07-23T16:13:53.287Z,38.46
2017-07-23T16:14:58.345Z,38.52
2017-07-23T16:16:03.485Z,38.62
2017-07-23T16:17:08.530Z,38.59
2017-07-23T16:18:13.685Z,38.77
2017-07-23T16:19:18.697Z,39.21
2017-07-23T16:20:23.771Z,39.40
2017-07-23T16:21:28.902Z,39.15
2017-07-23T16:22:34.532Z,39.19
2017-07-23T16:23:39.549Z,38.97
2017-07-23T16:24:44.629Z,38.89
2017-07-23T16:25:49.698Z,39.49
2017-07-23T16:26:54.707Z,39.44
2017-07-23T16:28:00.390Z,39.68
2017-07-23T16:29:05.474Z,39.66
2017-07-23T16:30:13.891Z,39.43
2017-07-23T16:31:18.918Z,39.03
2017-07-23T16:32:24.132Z,39.17
2017-07-23T16:33:29.173Z,39.01
2017-07-23T16:34:34.333Z,38.88
2017-07-23T16:35:38.989Z,39.10
2017-07-23T16:36:44.011Z,39.19
2017-07-23T16:37:49.155Z,39.39
2017-07-23T16:38:54.206Z,39.05
2017-07-23T16:39:59.287Z,38.43
2017-07-23T16:41:04.170Z,38.35
2017-07-23T16:42:09.237Z,38.61
2017-07-23T16:43:14.283Z,38.18
2017-07-23T16:44:19.318Z,37.60
2017-07-23T16:45:24.399Z,37.30
2017-07-23T16:46:29.479Z,37.05
2017-07-23T16:47:34.569Z,37.43
2017-07-23T16:48:39.687Z,37.29
2017-07-23T16:49:44.739Z,37.20
2017-07-23T16:50:53.253Z,37.16
2017-07-23T16:51:58.217Z,37.27
2017-07-23T16:53:03.259Z,37.25
2017-07-23T16:54:08.399Z,37.24
2017-07-23T16:55:14.045Z,37.41
2017-07-23T16:56:19.124Z,37.88
2017-07-23T16:57:24.091Z,38.13
2017-07-23T16:58:29.187Z,38.09
2017-07-23T16:59:34.353Z,38.39
2017-07-23T17:00:40.702Z,39.06
2017-07-23T17:01:46.572Z,38.78
2017-07-23T17:02:51.770Z,39.05
2017-07-23T17:03:57.192Z,39.13
2017-07-23T17:05:03.726Z,39.35
2017-07-23T17:06:08.903Z,39.51
2017-07-23T17:07:14.575Z,39.83
2017-07-23T17:08:19.636Z,39.97
2017-07-23T17:09:24.634Z,40.23
2017-07-23T17:10:29.710Z,40.31
2017-07-23T17:11:34.779Z,40.16
2017-07-23T17:12:41.158Z,39.95
2017-07-23T17:13:46.889Z,40.08
2017-07-23T17:14:51.954Z,39.85
2017-07-23T17:15:56.833Z,40.04
2017-07-23T17:17:02.457Z,39.97
2017-07-23T17:18:07.496Z,40.53
2017-07-23T17:19:12.626Z,40.87
2017-07-23T17:20:17.430Z,40.46
2017-07-23T17:21:23.168Z,40.47
2017-07-23T17:22:28.248Z,40.45
2017-07-23T17:23:33.277Z,40.80
2017-07-23T17:24:38.369Z,40.71
2017-07-23T17:25:44.477Z,40.92
2017-07-23T17:26:49.567Z,40.52
2017-07-23T17:27:54.620Z,41.08
2017-07-23T17:28:59.626Z,40.47
2017-07-23T17:30:04.717Z,41.07
2017-07-23T17:31:09.775Z,40.96
2017-07-23T17:32:14.814Z,41.16
2017-07-23T17:33:20.829Z,41.15
2017-07-23T17:34:25.853Z,41.16
2017-07-23T17:35:30.925Z,40.84
2017-07-23T17:36:35.933Z,40.78
2017-07-23T17:37:41.078Z,40.73
2017-07-23T17:38:46.853Z,41.06
2017-07-23T17:39:51.912Z,40.74
2017-07-23T17:40:56.988Z,40.90
2017-07-23T17:42:02.058Z,40.84
2017-07-23T17:43:08.750Z,41.34
2017-07-23T17:44:13.770Z,41.64